sensor_id;sensor_type;location;lat;lon;timestamp;P1;durP1;ratioP1;P2;durP2;ratioP2
78995;SDS011;68401;47.192;-1.552;2024-01-15T00:00:33;36.28;;;16.55;;
78995;SDS011;68401;47.192;-1.552;2024-01-15T00:02:59;39.15;;;16.77;;
78995;SDS011;68401;47.192;-1.552;2024-01-15T00:05:24;34.20;;;17.17;;
78995;SDS011;68401;47.192;-1.552;2024-01-15T00:07:50;40.03;;;17.48;;
78995;SDS011;68401;47.192;-1.552;2024-01-15T00:10:15;38.97;;;17.55;;
78995;SDS011;68401;47.192;-1.552;2024-01-15T00:12:41;37.35;;;17.48;;
78995;SDS011;68401;47.192;-1.552;2024-01-15T00:15:06;38.70;;;16.45;;
78995;SDS011;68401;47.192;-1.552;2024-01-15T00:17:32;34.90;;;17.50;;
78995;SDS011;68401;47.192;-1.552;2024-01-15T00:19:57;35.85;;;16.23;;
78995;SDS011;68401;47.192;-1.552;2024-01-15T00:22:24;34.38;;;17.15;;
78995;SDS011;68401;47.192;-1.552;2024-01-15T00:24:50;40.67;;;17.60;;
78995;SDS011;68401;47.192;-1.552;2024-01-15T00:27:16;38.65;;;17.33;;
78995;SDS011;68401;47.192;-1.552;2024-01-15T00:29:41;41.60;;;17.60;;
78995;SDS011;68401;47.192;-1.552;2024-01-15T00:32:15;39.38;;;15.85;;
78995;SDS011;68401;47.192;-1.552;2024-01-15T00:34:40;38.60;;;17.80;;
78995;SDS011;68401;47.192;-1.552;2024-01-15T00:37:06;39.03;;;16.67;;
78995;SDS011;68401;47.192;-1.552;2024-01-15T00:39:32;36.88;;;16.23;;
78995;SDS011;68401;47.192;-1.552;2024-01-15T00:41:57;34.63;;;16.77;;
78995;SDS011;68401;47.192;-1.552;2024-01-15T00:44:23;35.03;;;17.65;;
78995;SDS011;68401;47.192;-1.552;2024-01-15T00:46:48;34.35;;;14.73;;
78995;SDS011;68401;47.192;-1.552;2024-01-15T00:49:14;33.22;;;14.85;;
78995;SDS011;68401;47.192;-1.552;2024-01-15T00:51:39;39.22;;;15.98;;
78995;SDS011;68401;47.192;-1.552;2024-01-15T00:54:05;32.20;;;15.23;;
78995;SDS011;68401;47.192;-1.552;2024-01-15T00:56:30;30.58;;;13.27;;
78995;SDS011;68401;47.192;-1.552;2024-01-15T00:58:56;35.58;;;15.85;;
78995;SDS011;68401;47.192;-1.552;2024-01-15T01:01:21;33.00;;;16.50;;
78995;SDS011;68401;47.192;-1.552;2024-01-15T01:03:47;30.75;;;15.13;;
78995;SDS011;68401;47.192;-1.552;2024-01-15T01:06:12;38.38;;;15.68;;
78995;SDS011;68401;47.192;-1.552;2024-01-15T01:08:39;38.05;;;16.45;;
78995;SDS011;68401;47.192;-1.552;2024-01-15T01:11:05;33.50;;;16.17;;
78995;SDS011;68401;47.192;-1.552;2024-01-15T01:13:32;38.15;;;16.05;;
78995;SDS011;68401;47.192;-1.552;2024-01-15T01:15:57;35.47;;;16.50;;
78995;SDS011;68401;47.192;-1.552;2024-01-15T01:18:23;33.85;;;15.82;;
78995;SDS011;68401;47.192;-1.552;2024-01-15T01:20:48;33.08;;;16.67;;
78995;SDS011;68401;47.192;-1.552;2024-01-15T01:23:14;33.35;;;14.88;;
78995;SDS011;68401;47.192;-1.552;2024-01-15T01:25:39;36.15;;;15.43;;
78995;SDS011;68401;47.192;-1.552;2024-01-15T01:28:05;34.20;;;15.02;;
78995;SDS011;68401;47.192;-1.552;2024-01-15T01:30:30;33.67;;;16.02;;
78995;SDS011;68401;47.192;-1.552;2024-01-15T01:32:56;38.20;;;17.58;;
78995;SDS011;68401;47.192;-1.552;2024-01-15T01:35:22;41.28;;;17.90;;
78995;SDS011;68401;47.192;-1.552;2024-01-15T01:37:47;38.65;;;16.38;;
78995;SDS011;68401;47.192;-1.552;2024-01-15T01:40:13;33.17;;;15.13;;
78995;SDS011;68401;47.192;-1.552;2024-01-15T01:42:38;36.53;;;15.73;;
78995;SDS011;68401;47.192;-1.552;2024-01-15T01:45:04;39.13;;;17.10;;
78995;SDS011;68401;47.192;-1.552;2024-01-15T01:47:30;33.58;;;16.48;;
78995;SDS011;68401;47.192;-1.552;2024-01-15T01:49:55;37.28;;;16.35;;
78995;SDS011;68401;47.192;-1.552;2024-01-15T01:52:21;32.97;;;16.23;;
78995;SDS011;68401;47.192;-1.552;2024-01-15T01:54:46;39.10;;;17.00;;
78995;SDS011;68401;47.192;-1.552;2024-01-15T01:57:12;37.70;;;16.02;;
78995;SDS011;68401;47.192;-1.552;2024-01-15T01:59:38;34.55;;;15.43;;
78995;SDS011;68401;47.192;-1.552;2024-01-15T02:02:03;33.30;;;14.63;;
78995;SDS011;68401;47.192;-1.552;2024-01-15T02:04:29;36.90;;;16.90;;
78995;SDS011;68401;47.192;-1.552;2024-01-15T02:06:55;31.05;;;14.65;;
78995;SDS011;68401;47.192;-1.552;2024-01-15T02:09:21;30.58;;;16.05;;
78995;SDS011;68401;47.192;-1.552;2024-01-15T02:11:47;36.28;;;16.73;;
78995;SDS011;68401;47.192;-1.552;2024-01-15T02:14:13;35.40;;;17.08;;
78995;SDS011;68401;47.192;-1.552;2024-01-15T02:16:39;31.52;;;14.43;;
78995;SDS011;68401;47.192;-1.552;2024-01-15T02:19:04;34.60;;;15.57;;
78995;SDS011;68401;47.192;-1.552;2024-01-15T02:21:30;33.83;;;14.30;;
78995;SDS011;68401;47.192;-1.552;2024-01-15T02:23:56;29.42;;;14.45;;
78995;SDS011;68401;47.192;-1.552;2024-01-15T02:26:22;33.67;;;16.10;;
78995;SDS011;68401;47.192;-1.552;2024-01-15T02:28:48;35.47;;;15.45;;
78995;SDS011;68401;47.192;-1.552;2024-01-15T02:31:14;32.78;;;14.98;;
78995;SDS011;68401;47.192;-1.552;2024-01-15T02:33:39;33.97;;;15.52;;
78995;SDS011;68401;47.192;-1.552;2024-01-15T02:36:05;36.95;;;16.75;;
78995;SDS011;68401;47.192;-1.552;2024-01-15T02:38:38;36.60;;;16.25;;
78995;SDS011;68401;47.192;-1.552;2024-01-15T02:41:03;37.50;;;15.93;;
78995;SDS011;68401;47.192;-1.552;2024-01-15T02:43:29;35.95;;;16.45;;
78995;SDS011;68401;47.192;-1.552;2024-01-15T02:45:54;33.00;;;15.10;;
78995;SDS011;68401;47.192;-1.552;2024-01-15T02:48:20;33.67;;;15.07;;
78995;SDS011;68401;47.192;-1.552;2024-01-15T02:50:45;34.17;;;15.70;;
78995;SDS011;68401;47.192;-1.552;2024-01-15T02:53:10;34.20;;;16.73;;
78995;SDS011;68401;47.192;-1.552;2024-01-15T02:55:36;33.63;;;15.60;;
78995;SDS011;68401;47.192;-1.552;2024-01-15T02:58:01;40.47;;;16.90;;
78995;SDS011;68401;47.192;-1.552;2024-01-15T03:00:27;36.88;;;16.45;;
78995;SDS011;68401;47.192;-1.552;2024-01-15T03:02:52;34.33;;;15.95;;
78995;SDS011;68401;47.192;-1.552;2024-01-15T03:05:18;34.22;;;16.30;;
78995;SDS011;68401;47.192;-1.552;2024-01-15T03:07:43;34.15;;;15.32;;
78995;SDS011;68401;47.192;-1.552;2024-01-15T03:10:09;37.08;;;15.07;;
78995;SDS011;68401;47.192;-1.552;2024-01-15T03:12:35;34.40;;;15.43;;
78995;SDS011;68401;47.192;-1.552;2024-01-15T03:15:00;35.08;;;15.50;;
78995;SDS011;68401;47.192;-1.552;2024-01-15T03:17:26;34.67;;;14.93;;
78995;SDS011;68401;47.192;-1.552;2024-01-15T03:19:51;32.60;;;14.90;;
78995;SDS011;68401;47.192;-1.552;2024-01-15T03:22:17;30.30;;;14.35;;
78995;SDS011;68401;47.192;-1.552;2024-01-15T03:24:43;33.88;;;14.40;;
78995;SDS011;68401;47.192;-1.552;2024-01-15T03:27:08;32.42;;;15.23;;
78995;SDS011;68401;47.192;-1.552;2024-01-15T03:29:34;37.08;;;14.82;;
78995;SDS011;68401;47.192;-1.552;2024-01-15T03:32:00;27.95;;;14.27;;
78995;SDS011;68401;47.192;-1.552;2024-01-15T03:34:25;31.15;;;13.43;;
78995;SDS011;68401;47.192;-1.552;2024-01-15T03:36:51;33.75;;;13.43;;
78995;SDS011;68401;47.192;-1.552;2024-01-15T03:39:16;28.65;;;13.60;;
78995;SDS011;68401;47.192;-1.552;2024-01-15T03:41:42;30.70;;;14.38;;
78995;SDS011;68401;47.192;-1.552;2024-01-15T03:44:07;28.17;;;13.45;;
78995;SDS011;68401;47.192;-1.552;2024-01-15T03:46:33;28.27;;;12.13;;
78995;SDS011;68401;47.192;-1.552;2024-01-15T03:48:58;25.77;;;13.52;;
78995;SDS011;68401;47.192;-1.552;2024-01-15T03:51:24;27.42;;;13.30;;
78995;SDS011;68401;47.192;-1.552;2024-01-15T03:53:49;27.75;;;12.95;;
78995;SDS011;68401;47.192;-1.552;2024-01-15T03:56:15;25.80;;;12.02;;
78995;SDS011;68401;47.192;-1.552;2024-01-15T03:58:40;27.73;;;14.02;;
78995;SDS011;68401;47.192;-1.552;2024-01-15T04:01:09;27.38;;;12.90;;
78995;SDS011;68401;47.192;-1.552;2024-01-15T04:03:35;24.70;;;11.68;;
78995;SDS011;68401;47.192;-1.552;2024-01-15T04:06:00;27.98;;;12.90;;
78995;SDS011;68401;47.192;-1.552;2024-01-15T04:08:26;27.95;;;11.88;;
78995;SDS011;68401;47.192;-1.552;2024-01-15T04:10:51;27.88;;;13.48;;
78995;SDS011;68401;47.192;-1.552;2024-01-15T04:13:17;30.27;;;12.55;;
78995;SDS011;68401;47.192;-1.552;2024-01-15T04:15:42;27.08;;;13.10;;
78995;SDS011;68401;47.192;-1.552;2024-01-15T04:18:08;26.00;;;13.27;;
78995;SDS011;68401;47.192;-1.552;2024-01-15T04:20:33;25.85;;;11.80;;
78995;SDS011;68401;47.192;-1.552;2024-01-15T04:23:00;25.48;;;11.38;;
78995;SDS011;68401;47.192;-1.552;2024-01-15T04:25:25;23.33;;;12.50;;
78995;SDS011;68401;47.192;-1.552;2024-01-15T04:27:51;26.38;;;11.60;;
78995;SDS011;68401;47.192;-1.552;2024-01-15T04:30:16;25.02;;;11.82;;
78995;SDS011;68401;47.192;-1.552;2024-01-15T04:32:41;25.08;;;11.77;;
78995;SDS011;68401;47.192;-1.552;2024-01-15T04:35:07;21.92;;;12.45;;
78995;SDS011;68401;47.192;-1.552;2024-01-15T04:37:32;25.98;;;11.75;;
78995;SDS011;68401;47.192;-1.552;2024-01-15T04:39:58;21.95;;;10.82;;
78995;SDS011;68401;47.192;-1.552;2024-01-15T04:42:23;24.38;;;10.45;;
78995;SDS011;68401;47.192;-1.552;2024-01-15T04:44:49;21.00;;;10.65;;
78995;SDS011;68401;47.192;-1.552;2024-01-15T04:47:14;23.70;;;11.32;;
78995;SDS011;68401;47.192;-1.552;2024-01-15T04:49:40;22.42;;;10.43;;
78995;SDS011;68401;47.192;-1.552;2024-01-15T04:52:05;21.55;;;11.63;;
78995;SDS011;68401;47.192;-1.552;2024-01-15T04:54:30;24.48;;;10.68;;
78995;SDS011;68401;47.192;-1.552;2024-01-15T04:56:56;22.95;;;11.65;;
78995;SDS011;68401;47.192;-1.552;2024-01-15T04:59:21;23.40;;;11.88;;
78995;SDS011;68401;47.192;-1.552;2024-01-15T05:01:46;22.20;;;11.55;;
78995;SDS011;68401;47.192;-1.552;2024-01-15T05:04:13;20.77;;;11.77;;
78995;SDS011;68401;47.192;-1.552;2024-01-15T05:06:39;24.52;;;11.93;;
78995;SDS011;68401;47.192;-1.552;2024-01-15T05:09:04;22.38;;;11.48;;
78995;SDS011;68401;47.192;-1.552;2024-01-15T05:11:30;21.52;;;11.07;;
78995;SDS011;68401;47.192;-1.552;2024-01-15T05:13:55;24.23;;;11.95;;
78995;SDS011;68401;47.192;-1.552;2024-01-15T05:16:21;22.23;;;10.98;;
78995;SDS011;68401;47.192;-1.552;2024-01-15T05:18:46;21.08;;;10.68;;
78995;SDS011;68401;47.192;-1.552;2024-01-15T05:21:12;19.83;;;10.10;;
78995;SDS011;68401;47.192;-1.552;2024-01-15T05:23:37;22.20;;;11.27;;
78995;SDS011;68401;47.192;-1.552;2024-01-15T05:26:03;25.77;;;12.18;;
78995;SDS011;68401;47.192;-1.552;2024-01-15T05:28:28;21.02;;;10.75;;
78995;SDS011;68401;47.192;-1.552;2024-01-15T05:30:54;25.73;;;12.32;;
78995;SDS011;68401;47.192;-1.552;2024-01-15T05:33:20;24.95;;;11.52;;
78995;SDS011;68401;47.192;-1.552;2024-01-15T05:35:49;22.88;;;11.35;;
78995;SDS011;68401;47.192;-1.552;2024-01-15T05:38:15;25.73;;;11.65;;
78995;SDS011;68401;47.192;-1.552;2024-01-15T05:40:41;23.02;;;10.05;;
78995;SDS011;68401;47.192;-1.552;2024-01-15T05:43:07;18.65;;;10.73;;
78995;SDS011;68401;47.192;-1.552;2024-01-15T05:45:33;21.92;;;11.15;;
78995;SDS011;68401;47.192;-1.552;2024-01-15T05:47:59;21.10;;;11.05;;
78995;SDS011;68401;47.192;-1.552;2024-01-15T05:50:25;20.05;;;10.25;;
78995;SDS011;68401;47.192;-1.552;2024-01-15T05:52:50;19.38;;;11.88;;
78995;SDS011;68401;47.192;-1.552;2024-01-15T05:55:16;21.98;;;10.57;;
78995;SDS011;68401;47.192;-1.552;2024-01-15T05:57:43;19.15;;;10.77;;
78995;SDS011;68401;47.192;-1.552;2024-01-15T06:00:08;16.77;;;9.52;;
78995;SDS011;68401;47.192;-1.552;2024-01-15T06:02:35;19.60;;;10.70;;
78995;SDS011;68401;47.192;-1.552;2024-01-15T06:05:02;19.58;;;9.60;;
78995;SDS011;68401;47.192;-1.552;2024-01-15T06:07:28;19.05;;;10.43;;
78995;SDS011;68401;47.192;-1.552;2024-01-15T06:09:53;19.77;;;10.45;;
78995;SDS011;68401;47.192;-1.552;2024-01-15T06:12:18;22.13;;;11.38;;
78995;SDS011;68401;47.192;-1.552;2024-01-15T06:14:44;18.77;;;10.32;;
78995;SDS011;68401;47.192;-1.552;2024-01-15T06:17:09;21.63;;;9.75;;
78995;SDS011;68401;47.192;-1.552;2024-01-15T06:19:35;18.60;;;9.70;;
78995;SDS011;68401;47.192;-1.552;2024-01-15T06:22:01;18.58;;;10.00;;
78995;SDS011;68401;47.192;-1.552;2024-01-15T06:24:27;18.55;;;10.48;;
78995;SDS011;68401;47.192;-1.552;2024-01-15T06:26:52;19.48;;;9.75;;
78995;SDS011;68401;47.192;-1.552;2024-01-15T06:29:18;20.38;;;10.23;;
78995;SDS011;68401;47.192;-1.552;2024-01-15T06:31:44;16.00;;;8.68;;
78995;SDS011;68401;47.192;-1.552;2024-01-15T06:34:10;19.50;;;9.98;;
78995;SDS011;68401;47.192;-1.552;2024-01-15T06:36:35;22.45;;;11.20;;
78995;SDS011;68401;47.192;-1.552;2024-01-15T06:39:01;17.42;;;9.60;;
78995;SDS011;68401;47.192;-1.552;2024-01-15T06:41:27;20.60;;;11.00;;
78995;SDS011;68401;47.192;-1.552;2024-01-15T06:43:52;23.10;;;10.70;;
78995;SDS011;68401;47.192;-1.552;2024-01-15T06:46:21;17.13;;;9.27;;
78995;SDS011;68401;47.192;-1.552;2024-01-15T06:48:47;18.50;;;10.07;;
78995;SDS011;68401;47.192;-1.552;2024-01-15T06:51:12;19.45;;;9.57;;
78995;SDS011;68401;47.192;-1.552;2024-01-15T06:53:38;24.65;;;11.32;;
78995;SDS011;68401;47.192;-1.552;2024-01-15T06:56:03;18.38;;;9.50;;
78995;SDS011;68401;47.192;-1.552;2024-01-15T06:58:30;25.20;;;10.40;;
78995;SDS011;68401;47.192;-1.552;2024-01-15T07:00:56;17.85;;;9.38;;
78995;SDS011;68401;47.192;-1.552;2024-01-15T07:03:21;22.35;;;9.65;;
78995;SDS011;68401;47.192;-1.552;2024-01-15T07:05:47;21.23;;;10.73;;
78995;SDS011;68401;47.192;-1.552;2024-01-15T07:08:12;24.23;;;11.68;;
78995;SDS011;68401;47.192;-1.552;2024-01-15T07:10:38;20.38;;;10.40;;
78995;SDS011;68401;47.192;-1.552;2024-01-15T07:13:03;20.90;;;11.55;;
78995;SDS011;68401;47.192;-1.552;2024-01-15T07:15:30;20.70;;;11.55;;
78995;SDS011;68401;47.192;-1.552;2024-01-15T07:17:56;22.88;;;10.57;;
78995;SDS011;68401;47.192;-1.552;2024-01-15T07:20:21;21.48;;;11.25;;
78995;SDS011;68401;47.192;-1.552;2024-01-15T07:22:47;19.50;;;10.77;;
78995;SDS011;68401;47.192;-1.552;2024-01-15T07:25:12;17.38;;;10.23;;
78995;SDS011;68401;47.192;-1.552;2024-01-15T07:27:38;20.88;;;11.27;;
78995;SDS011;68401;47.192;-1.552;2024-01-15T07:30:03;22.05;;;10.90;;
78995;SDS011;68401;47.192;-1.552;2024-01-15T07:32:30;24.10;;;11.98;;
78995;SDS011;68401;47.192;-1.552;2024-01-15T07:34:56;19.77;;;10.75;;
78995;SDS011;68401;47.192;-1.552;2024-01-15T07:37:22;24.00;;;11.93;;
78995;SDS011;68401;47.192;-1.552;2024-01-15T07:39:48;20.33;;;10.77;;
78995;SDS011;68401;47.192;-1.552;2024-01-15T07:42:14;17.67;;;10.48;;
78995;SDS011;68401;47.192;-1.552;2024-01-15T07:44:40;22.45;;;11.65;;
78995;SDS011;68401;47.192;-1.552;2024-01-15T07:47:05;20.80;;;10.55;;
78995;SDS011;68401;47.192;-1.552;2024-01-15T07:49:31;23.10;;;10.23;;
78995;SDS011;68401;47.192;-1.552;2024-01-15T07:51:56;21.13;;;10.93;;
78995;SDS011;68401;47.192;-1.552;2024-01-15T07:54:21;19.98;;;11.68;;
78995;SDS011;68401;47.192;-1.552;2024-01-15T07:57:01;20.50;;;10.57;;
78995;SDS011;68401;47.192;-1.552;2024-01-15T07:59:28;26.25;;;11.60;;
78995;SDS011;68401;47.192;-1.552;2024-01-15T08:01:53;23.92;;;11.75;;
78995;SDS011;68401;47.192;-1.552;2024-01-15T08:04:19;23.10;;;10.77;;
78995;SDS011;68401;47.192;-1.552;2024-01-15T08:06:45;24.23;;;12.20;;
78995;SDS011;68401;47.192;-1.552;2024-01-15T08:09:11;20.80;;;10.95;;
78995;SDS011;68401;47.192;-1.552;2024-01-15T08:11:41;22.70;;;12.43;;
78995;SDS011;68401;47.192;-1.552;2024-01-15T08:14:07;23.25;;;12.10;;
78995;SDS011;68401;47.192;-1.552;2024-01-15T08:16:32;24.90;;;11.32;;
78995;SDS011;68401;47.192;-1.552;2024-01-15T08:18:58;22.95;;;11.27;;
78995;SDS011;68401;47.192;-1.552;2024-01-15T08:21:24;22.63;;;11.65;;
78995;SDS011;68401;47.192;-1.552;2024-01-15T08:23:49;24.55;;;12.25;;
78995;SDS011;68401;47.192;-1.552;2024-01-15T08:26:15;23.15;;;10.63;;
78995;SDS011;68401;47.192;-1.552;2024-01-15T08:28:40;24.63;;;12.57;;
78995;SDS011;68401;47.192;-1.552;2024-01-15T08:31:06;23.45;;;11.35;;
78995;SDS011;68401;47.192;-1.552;2024-01-15T08:33:31;20.83;;;12.15;;
78995;SDS011;68401;47.192;-1.552;2024-01-15T08:35:57;23.73;;;12.70;;
78995;SDS011;68401;47.192;-1.552;2024-01-15T08:38:22;20.48;;;11.88;;
78995;SDS011;68401;47.192;-1.552;2024-01-15T08:40:49;25.02;;;13.02;;
78995;SDS011;68401;47.192;-1.552;2024-01-15T08:43:14;23.83;;;11.63;;
78995;SDS011;68401;47.192;-1.552;2024-01-15T08:45:40;23.15;;;11.65;;
78995;SDS011;68401;47.192;-1.552;2024-01-15T08:48:05;23.90;;;11.90;;
78995;SDS011;68401;47.192;-1.552;2024-01-15T08:50:31;19.40;;;10.20;;
78995;SDS011;68401;47.192;-1.552;2024-01-15T08:52:58;22.80;;;11.43;;
78995;SDS011;68401;47.192;-1.552;2024-01-15T08:55:23;21.95;;;11.02;;
78995;SDS011;68401;47.192;-1.552;2024-01-15T08:57:49;19.88;;;11.30;;
78995;SDS011;68401;47.192;-1.552;2024-01-15T09:00:15;20.15;;;10.57;;
78995;SDS011;68401;47.192;-1.552;2024-01-15T09:02:41;30.13;;;11.15;;
78995;SDS011;68401;47.192;-1.552;2024-01-15T09:05:07;29.35;;;11.82;;
78995;SDS011;68401;47.192;-1.552;2024-01-15T09:07:33;30.88;;;12.48;;
78995;SDS011;68401;47.192;-1.552;2024-01-15T09:09:58;22.45;;;11.40;;
78995;SDS011;68401;47.192;-1.552;2024-01-15T09:12:25;22.27;;;10.77;;
78995;SDS011;68401;47.192;-1.552;2024-01-15T09:14:50;24.25;;;11.00;;
78995;SDS011;68401;47.192;-1.552;2024-01-15T09:17:18;21.10;;;11.88;;
78995;SDS011;68401;47.192;-1.552;2024-01-15T09:19:44;20.05;;;11.38;;
78995;SDS011;68401;47.192;-1.552;2024-01-15T09:22:12;20.40;;;11.25;;
78995;SDS011;68401;47.192;-1.552;2024-01-15T09:24:45;19.92;;;10.75;;
78995;SDS011;68401;47.192;-1.552;2024-01-15T09:27:11;20.92;;;11.27;;
78995;SDS011;68401;47.192;-1.552;2024-01-15T09:29:36;18.05;;;10.20;;
78995;SDS011;68401;47.192;-1.552;2024-01-15T09:32:10;21.60;;;12.23;;
78995;SDS011;68401;47.192;-1.552;2024-01-15T09:34:37;18.45;;;10.90;;
78995;SDS011;68401;47.192;-1.552;2024-01-15T09:37:02;20.75;;;10.40;;
78995;SDS011;68401;47.192;-1.552;2024-01-15T09:39:29;20.88;;;10.73;;
78995;SDS011;68401;47.192;-1.552;2024-01-15T09:41:55;24.08;;;11.63;;
78995;SDS011;68401;47.192;-1.552;2024-01-15T09:44:21;17.00;;;10.82;;
78995;SDS011;68401;47.192;-1.552;2024-01-15T09:46:47;19.42;;;10.73;;
78995;SDS011;68401;47.192;-1.552;2024-01-15T09:49:15;19.15;;;11.77;;
78995;SDS011;68401;47.192;-1.552;2024-01-15T09:51:43;21.02;;;11.60;;
78995;SDS011;68401;47.192;-1.552;2024-01-15T09:54:09;20.38;;;10.90;;
78995;SDS011;68401;47.192;-1.552;2024-01-15T09:56:35;19.52;;;11.05;;
78995;SDS011;68401;47.192;-1.552;2024-01-15T09:59:01;21.20;;;11.30;;
78995;SDS011;68401;47.192;-1.552;2024-01-15T10:01:27;18.75;;;10.95;;
78995;SDS011;68401;47.192;-1.552;2024-01-15T10:03:54;16.00;;;10.02;;
78995;SDS011;68401;47.192;-1.552;2024-01-15T10:06:19;20.98;;;12.25;;
78995;SDS011;68401;47.192;-1.552;2024-01-15T10:08:47;19.20;;;10.15;;
78995;SDS011;68401;47.192;-1.552;2024-01-15T10:11:13;19.52;;;10.80;;
78995;SDS011;68401;47.192;-1.552;2024-01-15T10:13:39;20.50;;;10.25;;
78995;SDS011;68401;47.192;-1.552;2024-01-15T10:16:05;19.67;;;11.20;;
78995;SDS011;68401;47.192;-1.552;2024-01-15T10:18:31;22.13;;;11.88;;
78995;SDS011;68401;47.192;-1.552;2024-01-15T10:20:57;19.17;;;10.90;;
78995;SDS011;68401;47.192;-1.552;2024-01-15T10:23:23;17.60;;;9.95;;
78995;SDS011;68401;47.192;-1.552;2024-01-15T10:25:49;19.35;;;13.00;;
78995;SDS011;68401;47.192;-1.552;2024-01-15T10:28:25;18.35;;;10.88;;
78995;SDS011;68401;47.192;-1.552;2024-01-15T10:30:51;17.65;;;10.77;;
78995;SDS011;68401;47.192;-1.552;2024-01-15T10:33:19;16.73;;;10.38;;
78995;SDS011;68401;47.192;-1.552;2024-01-15T10:35:46;18.25;;;11.73;;
78995;SDS011;68401;47.192;-1.552;2024-01-15T10:38:12;17.33;;;10.00;;
78995;SDS011;68401;47.192;-1.552;2024-01-15T10:40:37;17.50;;;10.00;;
78995;SDS011;68401;47.192;-1.552;2024-01-15T10:43:03;15.32;;;9.25;;
78995;SDS011;68401;47.192;-1.552;2024-01-15T10:45:29;15.32;;;9.13;;
78995;SDS011;68401;47.192;-1.552;2024-01-15T10:47:54;14.65;;;9.60;;
78995;SDS011;68401;47.192;-1.552;2024-01-15T10:50:23;17.27;;;10.45;;
78995;SDS011;68401;47.192;-1.552;2024-01-15T10:52:49;14.43;;;8.55;;
78995;SDS011;68401;47.192;-1.552;2024-01-15T10:55:16;14.15;;;8.98;;
78995;SDS011;68401;47.192;-1.552;2024-01-15T10:57:42;13.88;;;8.95;;
78995;SDS011;68401;47.192;-1.552;2024-01-15T11:00:10;16.50;;;10.05;;
78995;SDS011;68401;47.192;-1.552;2024-01-15T11:02:39;12.18;;;8.52;;
78995;SDS011;68401;47.192;-1.552;2024-01-15T11:05:05;15.50;;;9.65;;
78995;SDS011;68401;47.192;-1.552;2024-01-15T11:07:31;13.65;;;8.75;;
78995;SDS011;68401;47.192;-1.552;2024-01-15T11:09:57;13.73;;;9.05;;
78995;SDS011;68401;47.192;-1.552;2024-01-15T11:12:29;15.45;;;9.55;;
78995;SDS011;68401;47.192;-1.552;2024-01-15T11:15:01;14.65;;;8.95;;
78995;SDS011;68401;47.192;-1.552;2024-01-15T11:17:30;15.63;;;8.95;;
78995;SDS011;68401;47.192;-1.552;2024-01-15T11:20:25;11.65;;;8.43;;
78995;SDS011;68401;47.192;-1.552;2024-01-15T11:22:50;13.18;;;9.00;;
78995;SDS011;68401;47.192;-1.552;2024-01-15T11:25:18;11.23;;;7.75;;
78995;SDS011;68401;47.192;-1.552;2024-01-15T11:27:44;11.00;;;7.60;;
78995;SDS011;68401;47.192;-1.552;2024-01-15T11:32:38;10.68;;;7.15;;
78995;SDS011;68401;47.192;-1.552;2024-01-15T11:35:07;13.02;;;7.57;;
78995;SDS011;68401;47.192;-1.552;2024-01-15T11:40:22;12.80;;;8.13;;
78995;SDS011;68401;47.192;-1.552;2024-01-15T11:43:00;10.55;;;7.43;;
78995;SDS011;68401;47.192;-1.552;2024-01-15T11:45:26;11.63;;;7.30;;
78995;SDS011;68401;47.192;-1.552;2024-01-15T11:50:39;13.02;;;7.93;;
78995;SDS011;68401;47.192;-1.552;2024-01-15T11:53:07;12.55;;;8.63;;
78995;SDS011;68401;47.192;-1.552;2024-01-15T11:55:57;14.75;;;9.10;;
78995;SDS011;68401;47.192;-1.552;2024-01-15T11:58:23;12.75;;;8.05;;
78995;SDS011;68401;47.192;-1.552;2024-01-15T12:00:49;14.95;;;9.38;;
78995;SDS011;68401;47.192;-1.552;2024-01-15T12:03:16;15.25;;;9.50;;
78995;SDS011;68401;47.192;-1.552;2024-01-15T12:05:42;14.43;;;9.05;;
78995;SDS011;68401;47.192;-1.552;2024-01-15T12:08:07;15.05;;;12.00;;
78995;SDS011;68401;47.192;-1.552;2024-01-15T12:10:36;14.65;;;9.10;;
78995;SDS011;68401;47.192;-1.552;2024-01-15T12:13:09;15.32;;;9.27;;
78995;SDS011;68401;47.192;-1.552;2024-01-15T12:15:36;12.30;;;8.50;;
78995;SDS011;68401;47.192;-1.552;2024-01-15T12:18:03;14.43;;;8.57;;
78995;SDS011;68401;47.192;-1.552;2024-01-15T12:20:29;17.15;;;9.85;;
78995;SDS011;68401;47.192;-1.552;2024-01-15T12:22:55;14.82;;;9.90;;
78995;SDS011;68401;47.192;-1.552;2024-01-15T12:25:21;17.75;;;9.20;;
78995;SDS011;68401;47.192;-1.552;2024-01-15T12:27:48;13.55;;;8.88;;
78995;SDS011;68401;47.192;-1.552;2024-01-15T12:30:22;13.63;;;9.00;;
78995;SDS011;68401;47.192;-1.552;2024-01-15T12:32:47;14.95;;;9.27;;
78995;SDS011;68401;47.192;-1.552;2024-01-15T12:35:13;13.30;;;8.20;;
78995;SDS011;68401;47.192;-1.552;2024-01-15T12:37:40;12.00;;;8.20;;
78995;SDS011;68401;47.192;-1.552;2024-01-15T12:40:06;13.57;;;8.65;;
78995;SDS011;68401;47.192;-1.552;2024-01-15T12:42:34;14.77;;;8.85;;
78995;SDS011;68401;47.192;-1.552;2024-01-15T12:45:00;11.57;;;7.40;;
78995;SDS011;68401;47.192;-1.552;2024-01-15T12:47:26;13.32;;;8.32;;
78995;SDS011;68401;47.192;-1.552;2024-01-15T12:49:52;14.02;;;8.60;;
78995;SDS011;68401;47.192;-1.552;2024-01-15T12:54:49;13.88;;;8.95;;
78995;SDS011;68401;47.192;-1.552;2024-01-15T12:57:16;14.57;;;8.38;;
78995;SDS011;68401;47.192;-1.552;2024-01-15T12:59:42;15.15;;;8.18;;
78995;SDS011;68401;47.192;-1.552;2024-01-15T13:02:09;16.98;;;10.05;;
78995;SDS011;68401;47.192;-1.552;2024-01-15T13:04:35;15.68;;;9.80;;
78995;SDS011;68401;47.192;-1.552;2024-01-15T13:07:01;16.02;;;7.55;;
78995;SDS011;68401;47.192;-1.552;2024-01-15T13:09:26;16.58;;;8.32;;
78995;SDS011;68401;47.192;-1.552;2024-01-15T13:11:51;15.70;;;8.98;;
78995;SDS011;68401;47.192;-1.552;2024-01-15T13:14:17;16.10;;;9.38;;
78995;SDS011;68401;47.192;-1.552;2024-01-15T13:16:43;14.27;;;8.40;;
78995;SDS011;68401;47.192;-1.552;2024-01-15T13:19:09;13.95;;;7.82;;
78995;SDS011;68401;47.192;-1.552;2024-01-15T13:21:36;14.55;;;7.53;;
78995;SDS011;68401;47.192;-1.552;2024-01-15T13:24:02;13.05;;;7.60;;
78995;SDS011;68401;47.192;-1.552;2024-01-15T13:26:31;15.18;;;8.15;;
78995;SDS011;68401;47.192;-1.552;2024-01-15T13:28:57;16.45;;;8.65;;
78995;SDS011;68401;47.192;-1.552;2024-01-15T13:31:23;11.93;;;7.38;;
78995;SDS011;68401;47.192;-1.552;2024-01-15T13:33:49;14.20;;;7.45;;
78995;SDS011;68401;47.192;-1.552;2024-01-15T13:36:14;12.07;;;6.88;;
78995;SDS011;68401;47.192;-1.552;2024-01-15T13:38:40;13.70;;;7.60;;
78995;SDS011;68401;47.192;-1.552;2024-01-15T13:41:06;14.95;;;7.70;;
78995;SDS011;68401;47.192;-1.552;2024-01-15T13:43:32;14.10;;;8.02;;
78995;SDS011;68401;47.192;-1.552;2024-01-15T13:45:57;11.82;;;6.78;;
78995;SDS011;68401;47.192;-1.552;2024-01-15T13:48:23;12.63;;;7.20;;
78995;SDS011;68401;47.192;-1.552;2024-01-15T13:50:48;13.35;;;7.95;;
78995;SDS011;68401;47.192;-1.552;2024-01-15T13:53:15;14.68;;;8.68;;
78995;SDS011;68401;47.192;-1.552;2024-01-15T13:55:41;14.27;;;8.27;;
78995;SDS011;68401;47.192;-1.552;2024-01-15T13:58:06;15.30;;;8.35;;
78995;SDS011;68401;47.192;-1.552;2024-01-15T14:00:32;12.98;;;7.70;;
78995;SDS011;68401;47.192;-1.552;2024-01-15T14:02:58;11.43;;;7.78;;
78995;SDS011;68401;47.192;-1.552;2024-01-15T14:05:24;15.55;;;7.35;;
78995;SDS011;68401;47.192;-1.552;2024-01-15T14:07:49;12.95;;;7.45;;
78995;SDS011;68401;47.192;-1.552;2024-01-15T14:10:16;14.18;;;9.45;;
78995;SDS011;68401;47.192;-1.552;2024-01-15T14:12:41;14.57;;;8.10;;
78995;SDS011;68401;47.192;-1.552;2024-01-15T14:15:08;13.25;;;7.95;;